sensor_id;sensor_type;location;lat;lon;timestamp;temperature;humidity
62904;DHT22;49000;50.698;13.322;2023-03-19T00:01:26;4.70;33.20
62904;DHT22;49000;50.698;13.322;2023-03-19T00:03:52;5.40;33.30
62904;DHT22;49000;50.698;13.322;2023-03-19T00:06:17;5.40;32.70
62904;DHT22;49000;50.698;13.322;2023-03-19T00:08:43;5.20;33.20
62904;DHT22;49000;50.698;13.322;2023-03-19T00:11:10;5.50;34.50
62904;DHT22;49000;50.698;13.322;2023-03-19T00:13:37;5.50;34.30
62904;DHT22;49000;50.698;13.322;2023-03-19T00:16:03;5.00;32.30
62904;DHT22;49000;50.698;13.322;2023-03-19T00:18:28;5.10;31.40
62904;DHT22;49000;50.698;13.322;2023-03-19T00:20:55;5.20;31.90
62904;DHT22;49000;50.698;13.322;2023-03-19T00:23:20;5.20;30.90
62904;DHT22;49000;50.698;13.322;2023-03-19T00:25:45;5.30;31.80
62904;DHT22;49000;50.698;13.322;2023-03-19T00:28:11;5.20;32.70
62904;DHT22;49000;50.698;13.322;2023-03-19T00:30:36;5.20;32.50
62904;DHT22;49000;50.698;13.322;2023-03-19T00:33:02;4.90;33.70
62904;DHT22;49000;50.698;13.322;2023-03-19T00:35:28;5.10;34.60
62904;DHT22;49000;50.698;13.322;2023-03-19T00:37:53;5.10;35.00
62904;DHT22;49000;50.698;13.322;2023-03-19T00:40:19;4.60;35.40
62904;DHT22;49000;50.698;13.322;2023-03-19T00:42:45;4.60;36.30
62904;DHT22;49000;50.698;13.322;2023-03-19T00:45:11;4.70;35.50
62904;DHT22;49000;50.698;13.322;2023-03-19T00:47:37;5.10;36.20
62904;DHT22;49000;50.698;13.322;2023-03-19T00:50:03;4.60;36.20
62904;DHT22;49000;50.698;13.322;2023-03-19T00:52:29;4.90;36.70
62904;DHT22;49000;50.698;13.322;2023-03-19T00:54:55;4.90;37.50
62904;DHT22;49000;50.698;13.322;2023-03-19T00:57:20;4.60;39.50
62904;DHT22;49000;50.698;13.322;2023-03-19T00:59:46;4.50;40.50
62904;DHT22;49000;50.698;13.322;2023-03-19T01:02:12;4.90;45.60
62904;DHT22;49000;50.698;13.322;2023-03-19T01:04:37;4.70;48.70
62904;DHT22;49000;50.698;13.322;2023-03-19T01:07:03;4.80;49.10
62904;DHT22;49000;50.698;13.322;2023-03-19T01:09:29;5.00;49.60
62904;DHT22;49000;50.698;13.322;2023-03-19T01:11:54;5.10;49.60
62904;DHT22;49000;50.698;13.322;2023-03-19T01:14:20;4.90;50.50
62904;DHT22;49000;50.698;13.322;2023-03-19T01:16:46;4.80;51.40
62904;DHT22;49000;50.698;13.322;2023-03-19T01:19:12;4.80;51.00
62904;DHT22;49000;50.698;13.322;2023-03-19T01:21:37;4.80;50.90
62904;DHT22;49000;50.698;13.322;2023-03-19T01:24:03;4.80;50.20
62904;DHT22;49000;50.698;13.322;2023-03-19T01:26:28;4.80;50.50
62904;DHT22;49000;50.698;13.322;2023-03-19T01:28:54;4.80;52.00
62904;DHT22;49000;50.698;13.322;2023-03-19T01:31:20;4.80;52.70
62904;DHT22;49000;50.698;13.322;2023-03-19T01:33:46;4.50;51.80
62904;DHT22;49000;50.698;13.322;2023-03-19T01:36:12;4.90;52.90
62904;DHT22;49000;50.698;13.322;2023-03-19T01:38:37;4.60;54.20
62904;DHT22;49000;50.698;13.322;2023-03-19T01:41:03;4.80;57.20
62904;DHT22;49000;50.698;13.322;2023-03-19T01:43:30;4.90;60.10
62904;DHT22;49000;50.698;13.322;2023-03-19T01:46:22;4.90;59.70
62904;DHT22;49000;50.698;13.322;2023-03-19T01:48:54;5.00;59.80
62904;DHT22;49000;50.698;13.322;2023-03-19T01:51:26;5.10;60.10
62904;DHT22;49000;50.698;13.322;2023-03-19T01:53:56;4.80;60.50
62904;DHT22;49000;50.698;13.322;2023-03-19T01:58:58;4.70;63.80
62904;DHT22;49000;50.698;13.322;2023-03-19T02:01:26;4.30;64.90
62904;DHT22;49000;50.698;13.322;2023-03-19T02:03:52;4.80;66.40
62904;DHT22;49000;50.698;13.322;2023-03-19T02:06:21;4.40;65.10
62904;DHT22;49000;50.698;13.322;2023-03-19T02:08:48;4.30;64.50
62904;DHT22;49000;50.698;13.322;2023-03-19T02:11:15;4.60;65.90
62904;DHT22;49000;50.698;13.322;2023-03-19T02:13:41;4.50;66.00
62904;DHT22;49000;50.698;13.322;2023-03-19T02:16:07;4.70;65.40
62904;DHT22;49000;50.698;13.322;2023-03-19T02:18:34;4.80;67.00
62904;DHT22;49000;50.698;13.322;2023-03-19T02:21:29;4.60;67.10
62904;DHT22;49000;50.698;13.322;2023-03-19T02:24:14;4.50;66.80
62904;DHT22;49000;50.698;13.322;2023-03-19T02:26:41;4.40;67.50
62904;DHT22;49000;50.698;13.322;2023-03-19T02:29:08;4.60;66.70
62904;DHT22;49000;50.698;13.322;2023-03-19T02:31:34;4.80;67.80
62904;DHT22;49000;50.698;13.322;2023-03-19T02:34:02;4.60;70.50
62904;DHT22;49000;50.698;13.322;2023-03-19T02:36:32;4.20;71.10
62904;DHT22;49000;50.698;13.322;2023-03-19T02:39:02;4.10;71.00
62904;DHT22;49000;50.698;13.322;2023-03-19T02:41:29;4.80;70.90
62904;DHT22;49000;50.698;13.322;2023-03-19T02:43:56;4.50;70.60
62904;DHT22;49000;50.698;13.322;2023-03-19T02:46:22;4.30;71.20
62904;DHT22;49000;50.698;13.322;2023-03-19T02:48:47;4.50;73.20
62904;DHT22;49000;50.698;13.322;2023-03-19T02:51:13;4.20;74.30
62904;DHT22;49000;50.698;13.322;2023-03-19T02:53:39;4.40;75.60
62904;DHT22;49000;50.698;13.322;2023-03-19T02:56:04;4.50;81.20
62904;DHT22;49000;50.698;13.322;2023-03-19T02:58:30;4.30;84.50
62904;DHT22;49000;50.698;13.322;2023-03-19T03:00:55;4.40;89.00
62904;DHT22;49000;50.698;13.322;2023-03-19T03:03:21;4.40;90.80
62904;DHT22;49000;50.698;13.322;2023-03-19T03:05:46;3.90;95.40
62904;DHT22;49000;50.698;13.322;2023-03-19T03:08:12;4.20;99.90
62904;DHT22;49000;50.698;13.322;2023-03-19T03:10:37;4.40;99.90
62904;DHT22;49000;50.698;13.322;2023-03-19T03:13:03;3.80;99.90
62904;DHT22;49000;50.698;13.322;2023-03-19T03:15:29;4.40;99.90
62904;DHT22;49000;50.698;13.322;2023-03-19T03:17:55;4.30;99.90
62904;DHT22;49000;50.698;13.322;2023-03-19T03:20:21;3.90;99.90
62904;DHT22;49000;50.698;13.322;2023-03-19T03:22:46;3.70;99.90
62904;DHT22;49000;50.698;13.322;2023-03-19T03:25:13;4.00;99.90
62904;DHT22;49000;50.698;13.322;2023-03-19T03:27:39;4.40;99.90
62904;DHT22;49000;50.698;13.322;2023-03-19T03:30:06;4.20;99.90
62904;DHT22;49000;50.698;13.322;2023-03-19T03:32:33;4.30;99.90
62904;DHT22;49000;50.698;13.322;2023-03-19T03:34:58;4.30;99.90
62904;DHT22;49000;50.698;13.322;2023-03-19T03:37:24;4.10;99.90
62904;DHT22;49000;50.698;13.322;2023-03-19T03:39:49;4.40;99.90
62904;DHT22;49000;50.698;13.322;2023-03-19T03:42:15;3.70;99.90
62904;DHT22;49000;50.698;13.322;2023-03-19T03:44:40;3.80;99.90
62904;DHT22;49000;50.698;13.322;2023-03-19T03:47:06;4.20;99.90
62904;DHT22;49000;50.698;13.322;2023-03-19T03:49:32;3.80;99.90
62904;DHT22;49000;50.698;13.322;2023-03-19T03:51:57;4.10;99.90
62904;DHT22;49000;50.698;13.322;2023-03-19T03:54:23;3.90;99.90
62904;DHT22;49000;50.698;13.322;2023-03-19T03:56:48;3.60;99.90
62904;DHT22;49000;50.698;13.322;2023-03-19T03:59:15;3.90;99.90
62904;DHT22;49000;50.698;13.322;2023-03-19T04:01:40;4.00;99.90
62904;DHT22;49000;50.698;13.322;2023-03-19T04:04:06;3.70;99.90
62904;DHT22;49000;50.698;13.322;2023-03-19T04:06:31;4.20;99.90
62904;DHT22;49000;50.698;13.322;2023-03-19T04:08:57;3.90;99.90
62904;DHT22;49000;50.698;13.322;2023-03-19T04:11:22;3.50;99.90
62904;DHT22;49000;50.698;13.322;2023-03-19T04:13:48;3.90;99.90
62904;DHT22;49000;50.698;13.322;2023-03-19T04:16:13;4.00;99.90
62904;DHT22;49000;50.698;13.322;2023-03-19T04:18:39;4.00;99.90
62904;DHT22;49000;50.698;13.322;2023-03-19T04:21:06;3.40;99.90
62904;DHT22;49000;50.698;13.322;2023-03-19T04:23:32;3.90;99.90
62904;DHT22;49000;50.698;13.322;2023-03-19T04:26:01;3.90;99.90
62904;DHT22;49000;50.698;13.322;2023-03-19T04:28:28;4.00;99.90
62904;DHT22;49000;50.698;13.322;2023-03-19T04:31:00;3.80;99.90
62904;DHT22;49000;50.698;13.322;2023-03-19T04:33:26;3.60;99.90
62904;DHT22;49000;50.698;13.322;2023-03-19T04:35:51;3.90;99.90
62904;DHT22;49000;50.698;13.322;2023-03-19T04:38:17;3.70;99.90
62904;DHT22;49000;50.698;13.322;2023-03-19T04:40:42;3.70;99.90
62904;DHT22;49000;50.698;13.322;2023-03-19T04:43:08;3.30;99.90
62904;DHT22;49000;50.698;13.322;2023-03-19T04:45:33;3.50;99.90
62904;DHT22;49000;50.698;13.322;2023-03-19T04:47:59;3.50;99.90
62904;DHT22;49000;50.698;13.322;2023-03-19T04:50:24;3.50;99.90
62904;DHT22;49000;50.698;13.322;2023-03-19T04:52:50;3.60;99.90
62904;DHT22;49000;50.698;13.322;2023-03-19T04:55:15;3.40;99.90
62904;DHT22;49000;50.698;13.322;2023-03-19T04:57:41;3.40;99.90
62904;DHT22;49000;50.698;13.322;2023-03-19T05:00:09;2.90;99.90
62904;DHT22;49000;50.698;13.322;2023-03-19T05:02:35;3.50;99.90
62904;DHT22;49000;50.698;13.322;2023-03-19T05:05:00;3.40;99.90
62904;DHT22;49000;50.698;13.322;2023-03-19T05:07:26;3.40;99.90
62904;DHT22;49000;50.698;13.322;2023-03-19T05:09:52;3.50;99.90
62904;DHT22;49000;50.698;13.322;2023-03-19T05:12:17;3.30;99.90
62904;DHT22;49000;50.698;13.322;2023-03-19T05:14:43;3.10;99.90
62904;DHT22;49000;50.698;13.322;2023-03-19T05:17:08;3.40;99.90
62904;DHT22;49000;50.698;13.322;2023-03-19T05:19:36;3.40;99.90
62904;DHT22;49000;50.698;13.322;2023-03-19T05:22:02;3.30;99.90
62904;DHT22;49000;50.698;13.322;2023-03-19T05:24:28;3.60;99.90
62904;DHT22;49000;50.698;13.322;2023-03-19T05:26:53;3.50;99.90
62904;DHT22;49000;50.698;13.322;2023-03-19T05:29:19;3.40;99.90
62904;DHT22;49000;50.698;13.322;2023-03-19T05:31:44;3.20;99.90
62904;DHT22;49000;50.698;13.322;2023-03-19T05:34:10;3.00;99.90
62904;DHT22;49000;50.698;13.322;2023-03-19T05:36:35;3.10;99.90
62904;DHT22;49000;50.698;13.322;2023-03-19T05:39:01;3.00;99.90
62904;DHT22;49000;50.698;13.322;2023-03-19T05:41:27;3.40;99.90
62904;DHT22;49000;50.698;13.322;2023-03-19T05:43:53;3.60;99.90
62904;DHT22;49000;50.698;13.322;2023-03-19T05:46:18;3.50;99.90
62904;DHT22;49000;50.698;13.322;2023-03-19T05:48:44;3.10;99.90
62904;DHT22;49000;50.698;13.322;2023-03-19T05:51:09;3.20;99.90
62904;DHT22;49000;50.698;13.322;2023-03-19T05:53:35;3.20;99.90
62904;DHT22;49000;50.698;13.322;2023-03-19T05:56:01;3.40;99.90
62904;DHT22;49000;50.698;13.322;2023-03-19T05:58:26;3.30;99.90
62904;DHT22;49000;50.698;13.322;2023-03-19T06:00:54;3.30;99.90
62904;DHT22;49000;50.698;13.322;2023-03-19T06:03:21;3.80;99.90
62904;DHT22;49000;50.698;13.322;2023-03-19T06:05:48;4.00;99.90
62904;DHT22;49000;50.698;13.322;2023-03-19T06:08:14;3.60;99.90
62904;DHT22;49000;50.698;13.322;2023-03-19T06:10:40;4.20;99.90
62904;DHT22;49000;50.698;13.322;2023-03-19T06:13:05;3.90;99.90
62904;DHT22;49000;50.698;13.322;2023-03-19T06:15:31;4.20;99.90
62904;DHT22;49000;50.698;13.322;2023-03-19T06:17:56;4.30;99.90
62904;DHT22;49000;50.698;13.322;2023-03-19T06:20:22;4.20;99.90
62904;DHT22;49000;50.698;13.322;2023-03-19T06:22:47;4.30;99.90
62904;DHT22;49000;50.698;13.322;2023-03-19T06:25:13;4.40;99.90
62904;DHT22;49000;50.698;13.322;2023-03-19T06:27:38;4.30;99.90
62904;DHT22;49000;50.698;13.322;2023-03-19T06:30:04;4.30;99.90
62904;DHT22;49000;50.698;13.322;2023-03-19T06:32:30;4.70;99.90
62904;DHT22;49000;50.698;13.322;2023-03-19T06:34:56;4.80;99.90
62904;DHT22;49000;50.698;13.322;2023-03-19T06:37:22;4.80;99.90
62904;DHT22;49000;50.698;13.322;2023-03-19T06:39:48;4.40;99.90
62904;DHT22;49000;50.698;13.322;2023-03-19T06:42:14;4.80;99.90
62904;DHT22;49000;50.698;13.322;2023-03-19T06:44:39;4.80;99.90
62904;DHT22;49000;50.698;13.322;2023-03-19T06:47:05;5.10;99.90
62904;DHT22;49000;50.698;13.322;2023-03-19T06:49:31;5.30;99.90
62904;DHT22;49000;50.698;13.322;2023-03-19T06:51:56;5.20;99.90
62904;DHT22;49000;50.698;13.322;2023-03-19T06:54:22;5.20;99.90
62904;DHT22;49000;50.698;13.322;2023-03-19T06:56:47;5.60;99.90
62904;DHT22;49000;50.698;13.322;2023-03-19T06:59:13;5.30;99.90
62904;DHT22;49000;50.698;13.322;2023-03-19T07:01:40;5.90;99.90
62904;DHT22;49000;50.698;13.322;2023-03-19T07:04:06;6.10;99.90
62904;DHT22;49000;50.698;13.322;2023-03-19T07:06:31;6.10;99.90
62904;DHT22;49000;50.698;13.322;2023-03-19T07:08:59;6.00;99.90
62904;DHT22;49000;50.698;13.322;2023-03-19T07:11:24;6.00;99.90
62904;DHT22;49000;50.698;13.322;2023-03-19T07:13:50;6.50;99.90
62904;DHT22;49000;50.698;13.322;2023-03-19T07:16:15;6.20;99.90
62904;DHT22;49000;50.698;13.322;2023-03-19T07:18:41;6.30;99.90
62904;DHT22;49000;50.698;13.322;2023-03-19T07:21:06;6.40;99.90
62904;DHT22;49000;50.698;13.322;2023-03-19T07:23:32;6.50;99.90
62904;DHT22;49000;50.698;13.322;2023-03-19T07:25:57;7.10;99.90
62904;DHT22;49000;50.698;13.322;2023-03-19T07:28:23;7.10;99.90
62904;DHT22;49000;50.698;13.322;2023-03-19T07:30:51;7.40;99.90
62904;DHT22;49000;50.698;13.322;2023-03-19T07:33:17;7.60;99.90
62904;DHT22;49000;50.698;13.322;2023-03-19T07:35:43;7.70;99.90
62904;DHT22;49000;50.698;13.322;2023-03-19T07:38:08;7.90;99.90
62904;DHT22;49000;50.698;13.322;2023-03-19T07:40:34;8.00;99.90
62904;DHT22;49000;50.698;13.322;2023-03-19T07:42:59;8.10;99.90
62904;DHT22;49000;50.698;13.322;2023-03-19T07:45:24;8.30;99.90
62904;DHT22;49000;50.698;13.322;2023-03-19T07:47:50;8.40;99.90
62904;DHT22;49000;50.698;13.322;2023-03-19T07:50:16;8.60;99.90
62904;DHT22;49000;50.698;13.322;2023-03-19T07:52:45;8.70;99.90
62904;DHT22;49000;50.698;13.322;2023-03-19T07:55:11;8.80;99.90
62904;DHT22;49000;50.698;13.322;2023-03-19T07:57:37;8.90;99.90
62904;DHT22;49000;50.698;13.322;2023-03-19T08:00:03;9.00;99.90
62904;DHT22;49000;50.698;13.322;2023-03-19T08:02:29;9.10;99.90
62904;DHT22;49000;50.698;13.322;2023-03-19T08:04:54;9.30;99.90
62904;DHT22;49000;50.698;13.322;2023-03-19T08:07:21;9.40;99.90
62904;DHT22;49000;50.698;13.322;2023-03-19T08:09:46;9.50;95.90
62904;DHT22;49000;50.698;13.322;2023-03-19T08:12:12;9.70;99.30
62904;DHT22;49000;50.698;13.322;2023-03-19T08:14:38;9.80;65.20
62904;DHT22;49000;50.698;13.322;2023-03-19T08:17:03;9.90;64.20
62904;DHT22;49000;50.698;13.322;2023-03-19T08:19:29;10.00;72.10
62904;DHT22;49000;50.698;13.322;2023-03-19T08:21:54;10.20;56.30
62904;DHT22;49000;50.698;13.322;2023-03-19T08:24:20;10.40;57.60
62904;DHT22;49000;50.698;13.322;2023-03-19T08:26:46;10.60;57.70
62904;DHT22;49000;50.698;13.322;2023-03-19T08:29:12;10.80;46.40
62904;DHT22;49000;50.698;13.322;2023-03-19T08:31:37;10.90;25.30
62904;DHT22;49000;50.698;13.322;2023-03-19T08:34:03;11.00;21.60
62904;DHT22;49000;50.698;13.322;2023-03-19T08:36:29;11.10;26.60
62904;DHT22;49000;50.698;13.322;2023-03-19T08:38:56;11.40;28.80
62904;DHT22;49000;50.698;13.322;2023-03-19T08:41:23;11.50;20.60
62904;DHT22;49000;50.698;13.322;2023-03-19T08:43:48;11.50;17.30
62904;DHT22;49000;50.698;13.322;2023-03-19T08:46:14;11.70;18.10
62904;DHT22;49000;50.698;13.322;2023-03-19T08:48:40;11.90;17.10
62904;DHT22;49000;50.698;13.322;2023-03-19T08:51:06;12.10;16.10
62904;DHT22;49000;50.698;13.322;2023-03-19T08:53:31;12.30;16.20
62904;DHT22;49000;50.698;13.322;2023-03-19T08:56:00;12.50;13.60
62904;DHT22;49000;50.698;13.322;2023-03-19T08:58:27;12.40;14.70
62904;DHT22;49000;50.698;13.322;2023-03-19T09:00:59;12.40;14.20
62904;DHT22;49000;50.698;13.322;2023-03-19T09:03:24;12.50;15.30
62904;DHT22;49000;50.698;13.322;2023-03-19T09:05:50;12.60;14.50
62904;DHT22;49000;50.698;13.322;2023-03-19T09:08:16;12.70;14.80
62904;DHT22;49000;50.698;13.322;2023-03-19T09:10:42;12.80;11.40
62904;DHT22;49000;50.698;13.322;2023-03-19T09:13:07;12.90;7.00
62904;DHT22;49000;50.698;13.322;2023-03-19T09:15:33;13.00;4.50
62904;DHT22;49000;50.698;13.322;2023-03-19T09:17:58;13.10;5.30
62904;DHT22;49000;50.698;13.322;2023-03-19T09:20:24;13.30;6.50
62904;DHT22;49000;50.698;13.322;2023-03-19T09:22:50;13.40;5.70
62904;DHT22;49000;50.698;13.322;2023-03-19T09:25:15;13.70;4.00
62904;DHT22;49000;50.698;13.322;2023-03-19T09:27:41;13.80;2.40
62904;DHT22;49000;50.698;13.322;2023-03-19T09:30:07;13.90;2.60
62904;DHT22;49000;50.698;13.322;2023-03-19T09:32:35;14.00;1.00
62904;DHT22;49000;50.698;13.322;2023-03-19T09:35:01;14.20;1.00
62904;DHT22;49000;50.698;13.322;2023-03-19T09:37:27;14.50;1.00
62904;DHT22;49000;50.698;13.322;2023-03-19T09:39:52;14.70;1.00
62904;DHT22;49000;50.698;13.322;2023-03-19T09:44:51;15.20;1.00
62904;DHT22;49000;50.698;13.322;2023-03-19T09:47:27;15.20;1.00
62904;DHT22;49000;50.698;13.322;2023-03-19T09:50:04;15.20;1.00
62904;DHT22;49000;50.698;13.322;2023-03-19T09:52:47;15.20;1.00
62904;DHT22;49000;50.698;13.322;2023-03-19T09:55:26;15.40;1.00
62904;DHT22;49000;50.698;13.322;2023-03-19T09:57:56;15.50;1.00
62904;DHT22;49000;50.698;13.322;2023-03-19T10:00:25;15.30;1.00
62904;DHT22;49000;50.698;13.322;2023-03-19T10:03:27;15.20;1.00
62904;DHT22;49000;50.698;13.322;2023-03-19T10:11:53;15.60;1.00
62904;DHT22;49000;50.698;13.322;2023-03-19T10:17:01;15.30;1.00
62904;DHT22;49000;50.698;13.322;2023-03-19T10:19:39;15.30;1.00
62904;DHT22;49000;50.698;13.322;2023-03-19T10:22:12;15.40;1.00
62904;DHT22;49000;50.698;13.322;2023-03-19T10:24:42;15.60;1.00
62904;DHT22;49000;50.698;13.322;2023-03-19T10:27:16;15.80;1.00
62904;DHT22;49000;50.698;13.322;2023-03-19T10:29:42;16.00;1.00
62904;DHT22;49000;50.698;13.322;2023-03-19T10:34:44;16.30;1.00
62904;DHT22;49000;50.698;13.322;2023-03-19T10:37:28;16.20;1.00
62904;DHT22;49000;50.698;13.322;2023-03-19T10:39:56;16.00;1.00
62904;DHT22;49000;50.698;13.322;2023-03-19T10:42:50;15.90;1.00
62904;DHT22;49000;50.698;13.322;2023-03-19T10:47:52;16.00;1.00
62904;DHT22;49000;50.698;13.322;2023-03-19T10:50:27;16.20;1.00
62904;DHT22;49000;50.698;13.322;2023-03-19T10:55:45;16.60;1.00
62904;DHT22;49000;50.698;13.322;2023-03-19T10:58:19;16.60;1.00
62904;DHT22;49000;50.698;13.322;2023-03-19T11:00:48;16.50;1.00
62904;DHT22;49000;50.698;13.322;2023-03-19T11:03:49;16.50;1.00
62904;DHT22;49000;50.698;13.322;2023-03-19T11:06:32;16.60;1.00
62904;DHT22;49000;50.698;13.322;2023-03-19T11:11:34;16.80;1.00
62904;DHT22;49000;50.698;13.322;2023-03-19T11:14:37;16.90;1.00
62904;DHT22;49000;50.698;13.322;2023-03-19T11:17:19;16.90;1.00
62904;DHT22;49000;50.698;13.322;2023-03-19T11:19:51;16.80;1.00
62904;DHT22;49000;50.698;13.322;2023-03-19T11:22:21;16.90;1.00
62904;DHT22;49000;50.698;13.322;2023-03-19T11:24:56;17.00;1.00
62904;DHT22;49000;50.698;13.322;2023-03-19T11:27:34;17.10;1.00
62904;DHT22;49000;50.698;13.322;2023-03-19T11:30:02;16.90;1.00
62904;DHT22;49000;50.698;13.322;2023-03-19T11:32:54;16.90;1.00
62904;DHT22;49000;50.698;13.322;2023-03-19T11:35:35;16.70;1.00
62904;DHT22;49000;50.698;13.322;2023-03-19T11:38:03;16.50;1.00
62904;DHT22;49000;50.698;13.322;2023-03-19T11:43:35;16.40;1.00
62904;DHT22;49000;50.698;13.322;2023-03-19T11:51:29;16.30;1.00
62904;DHT22;49000;50.698;13.322;2023-03-19T11:56:41;16.40;1.00
62904;DHT22;49000;50.698;13.322;2023-03-19T12:04:59;16.70;1.00
62904;DHT22;49000;50.698;13.322;2023-03-19T12:07:36;16.60;1.00
62904;DHT22;49000;50.698;13.322;2023-03-19T12:13:15;16.50;1.00
62904;DHT22;49000;50.698;13.322;2023-03-19T12:15:55;16.60;1.00
62904;DHT22;49000;50.698;13.322;2023-03-19T12:18:52;16.70;1.00
62904;DHT22;49000;50.698;13.322;2023-03-19T12:21:40;16.70;1.00
62904;DHT22;49000;50.698;13.322;2023-03-19T12:27:36;16.60;1.00
62904;DHT22;49000;50.698;13.322;2023-03-19T12:30:33;16.70;1.00
62904;DHT22;49000;50.698;13.322;2023-03-19T12:36:28;16.60;1.00
62904;DHT22;49000;50.698;13.322;2023-03-19T12:39:12;16.70;1.00
62904;DHT22;49000;50.698;13.322;2023-03-19T12:41:41;16.90;1.00
62904;DHT22;49000;50.698;13.322;2023-03-19T12:46:43;16.10;1.00
62904;DHT22;49000;50.698;13.322;2023-03-19T12:49:17;16.20;1.00
62904;DHT22;49000;50.698;13.322;2023-03-19T12:51:47;16.30;1.00
62904;DHT22;49000;50.698;13.322;2023-03-19T12:54:25;16.30;1.00
62904;DHT22;49000;50.698;13.322;2023-03-19T12:57:06;16.30;1.00
62904;DHT22;49000;50.698;13.322;2023-03-19T13:00:04;16.50;1.00
62904;DHT22;49000;50.698;13.322;2023-03-19T13:02:40;16.50;1.00
62904;DHT22;49000;50.698;13.322;2023-03-19T13:05:20;16.40;1.00
62904;DHT22;49000;50.698;13.322;2023-03-19T13:08:05;16.30;1.00
62904;DHT22;49000;50.698;13.322;2023-03-19T13:10:41;16.20;1.00
62904;DHT22;49000;50.698;13.322;2023-03-19T13:13:38;16.20;1.00
62904;DHT22;49000;50.698;13.322;2023-03-19T13:19:03;15.90;1.00
62904;DHT22;49000;50.698;13.322;2023-03-19T13:21:32;16.00;1.00
62904;DHT22;49000;50.698;13.322;2023-03-19T13:26:44;16.00;1.00
62904;DHT22;49000;50.698;13.322;2023-03-19T13:29:22;16.00;1.00
62904;DHT22;49000;50.698;13.322;2023-03-19T13:31:49;16.10;1.40
62904;DHT22;49000;50.698;13.322;2023-03-19T13:34:24;16.00;1.00
62904;DHT22;49000;50.698;13.322;2023-03-19T13:37:18;16.00;1.00
62904;DHT22;49000;50.698;13.322;2023-03-19T13:39:46;16.00;1.00
62904;DHT22;49000;50.698;13.322;2023-03-19T13:42:37;16.00;1.00
62904;DHT22;49000;50.698;13.322;2023-03-19T13:45:33;15.80;1.00
62904;DHT22;49000;50.698;13.322;2023-03-19T13:50:59;15.60;1.00
62904;DHT22;49000;50.698;13.322;2023-03-19T13:53:35;15.50;1.00
62904;DHT22;49000;50.698;13.322;2023-03-19T13:56:11;15.50;1.00
62904;DHT22;49000;50.698;13.322;2023-03-19T13:58:49;15.20;1.40
62904;DHT22;49000;50.698;13.322;2023-03-19T14:04:00;15.10;7.70
62904;DHT22;49000;50.698;13.322;2023-03-19T14:06:45;14.80;9.50
62904;DHT22;49000;50.698;13.322;2023-03-19T14:09:34;14.80;11.40
62904;DHT22;49000;50.698;13.322;2023-03-19T14:12:10;14.70;13.00
62904;DHT22;49000;50.698;13.322;2023-03-19T14:14:41;14.60;12.30
62904;DHT22;49000;50.698;13.322;2023-03-19T14:17:17;14.70;12.20
62904;DHT22;49000;50.698;13.322;2023-03-19T14:19:43;14.60;12.30
62904;DHT22;49000;50.698;13.322;2023-03-19T14:24:55;14.40;12.50
62904;DHT22;49000;50.698;13.322;2023-03-19T14:27:29;14.30;11.60
62904;DHT22;49000;50.698;13.322;2023-03-19T14:29:59;13.90;13.30
62904;DHT22;49000;50.698;13.322;2023-03-19T14:32:33;13.70;15.50
62904;DHT22;49000;50.698;13.322;2023-03-19T14:35:03;13.80;15.20
62904;DHT22;49000;50.698;13.322;2023-03-19T14:40:35;13.70;14.00
62904;DHT22;49000;50.698;13.322;2023-03-19T14:49:27;13.60;19.70
62904;DHT22;49000;50.698;13.322;2023-03-19T14:52:13;13.50;21.90
62904;DHT22;49000;50.698;13.322;2023-03-19T14:57:19;13.50;23.20
62904;DHT22;49000;50.698;13.322;2023-03-19T14:59:45;13.50;22.10
62904;DHT22;49000;50.698;13.322;2023-03-19T15:02:38;13.40;19.60
62904;DHT22;49000;50.698;13.322;2023-03-19T15:05:07;13.30;21.60
62904;DHT22;49000;50.698;13.322;2023-03-19T15:07:40;13.20;22.30
62904;DHT22;49000;50.698;13.322;2023-03-19T15:10:15;13.20;21.60
62904;DHT22;49000;50.698;13.322;2023-03-19T15:12:59;13.10;21.80
62904;DHT22;49000;50.698;13.322;2023-03-19T15:18:19;12.80;26.40
62904;DHT22;49000;50.698;13.322;2023-03-19T15:20:47;12.60;29.90
62904;DHT22;49000;50.698;13.322;2023-03-19T15:23:18;12.50;32.80
62904;DHT22;49000;50.698;13.322;2023-03-19T15:25:50;12.60;35.80
62904;DHT22;49000;50.698;13.322;2023-03-19T15:28:17;12.70;39.00
62904;DHT22;49000;50.698;13.322;2023-03-19T15:30:44;12.80;43.60
62904;DHT22;49000;50.698;13.322;2023-03-19T15:33:18;12.70;43.50
62904;DHT22;49000;50.698;13.322;2023-03-19T15:35:48;12.50;50.70
62904;DHT22;49000;50.698;13.322;2023-03-19T15:38:16;12.50;55.80
62904;DHT22;49000;50.698;13.322;2023-03-19T15:40:42;12.30;58.90
62904;DHT22;49000;50.698;13.322;2023-03-19T15:43:10;12.30;67.70
62904;DHT22;49000;50.698;13.322;2023-03-19T15:45:38;12.20;86.90
62904;DHT22;49000;50.698;13.322;2023-03-19T15:48:17;12.20;95.90
62904;DHT22;49000;50.698;13.322;2023-03-19T15:50:45;12.20;98.20
62904;DHT22;49000;50.698;13.322;2023-03-19T15:53:15;12.20;99.10
62904;DHT22;49000;50.698;13.322;2023-03-19T15:55:42;12.20;99.90
62904;DHT22;49000;50.698;13.322;2023-03-19T15:58:11;12.10;99.90
62904;DHT22;49000;50.698;13.322;2023-03-19T16:00:40;12.00;99.90
62904;DHT22;49000;50.698;13.322;2023-03-19T16:03:06;11.90;99.90
62904;DHT22;49000;50.698;13.322;2023-03-19T16:05:36;11.70;99.90
62904;DHT22;49000;50.698;13.322;2023-03-19T16:08:09;11.70;99.90
62904;DHT22;49000;50.698;13.322;2023-03-19T16:10:40;11.70;99.90
62904;DHT22;49000;50.698;13.322;2023-03-19T16:16:05;11.50;99.90
62904;DHT22;49000;50.698;13.322;2023-03-19T16:19:02;11.60;99.90
62904;DHT22;49000;50.698;13.322;2023-03-19T16:21:36;11.50;99.90
62904;DHT22;49000;50.698;13.322;2023-03-19T16:26:39;11.70;99.90
62904;DHT22;49000;50.698;13.322;2023-03-19T16:31:51;11.70;99.90
62904;DHT22;49000;50.698;13.322;2023-03-19T16:34:42;11.70;99.90
62904;DHT22;49000;50.698;13.322;2023-03-19T16:42:37;11.60;99.90
62904;DHT22;49000;50.698;13.322;2023-03-19T16:45:30;11.60;99.90
62904;DHT22;49000;50.698;13.322;2023-03-19T16:47:57;11.60;99.90
62904;DHT22;49000;50.698;13.322;2023-03-19T16:50:29;11.50;99.90
62904;DHT22;49000;50.698;13.322;2023-03-19T16:52:56;11.40;99.90
62904;DHT22;49000;50.698;13.322;2023-03-19T16:55:25;11.40;99.90
62904;DHT22;49000;50.698;13.322;2023-03-19T16:58:12;11.20;99.90
62904;DHT22;49000;50.698;13.322;2023-03-19T17:00:38;11.30;99.90
62904;DHT22;49000;50.698;13.322;2023-03-19T17:03:11;11.30;99.90
62904;DHT22;49000;50.698;13.322;2023-03-19T17:05:36;11.30;99.90
62904;DHT22;49000;50.698;13.322;2023-03-19T17:08:02;11.30;99.90
62904;DHT22;49000;50.698;13.322;2023-03-19T17:10:27;11.30;99.90
62904;DHT22;49000;50.698;13.322;2023-03-19T17:12:55;11.30;99.90
62904;DHT22;49000;50.698;13.322;2023-03-19T17:15:24;11.30;99.90
62904;DHT22;49000;50.698;13.322;2023-03-19T17:17:51;11.20;99.90